createdAt,value
2019-02-20T00:03:09.851Z,68.8
2019-02-20T00:25:35.045Z,68.4
2019-02-20T00:48:00.796Z,68.7
2019-02-20T00:58:20.510Z,68.3
2019-02-20T01:09:06.406Z,68.5
2019-02-20T01:19:56.859Z,69.2
2019-02-20T01:30:13.555Z,68.9
2019-02-20T01:40:27.954Z,68.5
2019-02-20T01:50:41.522Z,69.0
2019-02-20T02:01:02.474Z,69.8
2019-02-20T02:12:06.911Z,69.3
2019-02-20T02:22:51.536Z,69.4
2019-02-20T02:33:05.261Z,69.2
2019-02-20T02:43:18.390Z,70.2
2019-02-20T02:54:02.879Z,69.7
2019-02-20T03:04:48.336Z,69.7
2019-02-20T03:15:33.503Z,69.3
2019-02-20T03:25:46.932Z,69.3
2019-02-20T03:35:59.933Z,69.5
2019-02-20T03:46:13.483Z,69.1
2019-02-20T03:56:26.634Z,69.2
2019-02-20T04:06:40.415Z,69.6
2019-02-20T04:16:54.044Z,69.8
2019-02-20T04:27:07.076Z,70.1
2019-02-20T04:37:20.167Z,70.0
2019-02-20T04:47:49.114Z,69.9
2019-02-20T04:58:02.879Z,70.7
2019-02-20T05:08:15.932Z,70.2
2019-02-20T05:18:37.959Z,70.1
2019-02-20T05:28:48.733Z,70.4
2019-02-20T05:39:18.095Z,70.0
2019-02-20T05:49:29.145Z,70.2
2019-02-20T06:00:13.951Z,70.1
2019-02-20T06:10:29.553Z,70.1
2019-02-20T06:20:43.270Z,70.1
2019-02-20T06:30:57.009Z,70.6
2019-02-20T06:41:42.505Z,70.3
2019-02-20T06:52:26.998Z,70.9
2019-02-20T07:02:40.527Z,70.6
2019-02-20T07:12:53.578Z,70.7
2019-02-20T07:23:38.627Z,72.0
2019-02-20T07:34:04.857Z,71.5
2019-02-20T07:44:13.809Z,71.8
2019-02-20T07:54:31.290Z,73.0
2019-02-20T08:04:45.139Z,72.5
2019-02-20T08:15:36.604Z,72.5
2019-02-20T08:25:51.211Z,72.1
2019-02-20T08:36:42.284Z,71.7
2019-02-20T08:46:56.737Z,71.9
2019-02-20T08:57:14.345Z,71.8
2019-02-20T09:08:09.294Z,71.9
2019-02-20T09:18:57.666Z,72.2
2019-02-20T09:30:07.822Z,71.8
2019-02-20T09:40:57.205Z,71.3
2019-02-20T09:51:11.369Z,70.7
2019-02-20T10:02:15.478Z,70.6
2019-02-20T10:12:41.991Z,68.1
2019-02-20T10:23:07.972Z,68.4
2019-02-20T10:33:46.734Z,65.8
2019-02-20T10:43:58.794Z,64.6
2019-02-20T10:55:02.056Z,63.0
2019-02-20T11:05:21.443Z,62.8
2019-02-20T11:15:40.149Z,62.6
2019-02-20T11:27:09.543Z,62.0
2019-02-20T11:38:01.126Z,61.7
2019-02-20T11:48:56.781Z,62.7
2019-02-20T11:59:45.330Z,62.8
2019-02-20T12:10:39.555Z,62.5
2019-02-20T12:21:39.183Z,62.1
2019-02-20T12:32:19.646Z,62.8
2019-02-20T12:43:15.681Z,62.8
2019-02-20T12:54:31.296Z,62.2
2019-02-20T13:06:08.981Z,61.9
2019-02-20T13:16:26.558Z,62.2
2019-02-20T13:26:58.733Z,61.8
2019-02-20T13:37:31.599Z,62.3
2019-02-20T13:48:37.056Z,61.6
2019-02-20T13:58:58.764Z,60.9
2019-02-20T14:09:12.311Z,61.1
2019-02-20T14:20:02.878Z,61.1
2019-02-20T14:30:21.087Z,61.5
2019-02-20T14:53:54.229Z,60.4
2019-02-20T15:04:06.039Z,61.0
2019-02-20T15:17:55.880Z,62.0
2019-02-20T15:28:42.063Z,61.9
2019-02-20T15:39:31.659Z,62.0
2019-02-20T15:50:22.364Z,62.4
2019-02-20T16:00:39.288Z,61.8
2019-02-20T16:10:56.604Z,62.1
2019-02-20T16:21:14.076Z,62.0
2019-02-20T16:43:54.241Z,62.7
2019-02-20T16:54:42.544Z,62.8
2019-02-20T17:05:12.994Z,63.0
2019-02-20T17:16:50.855Z,63.1
2019-02-20T17:28:27.277Z,63.1
2019-02-20T18:08:38.927Z,63.5
2019-02-20T18:20:13.508Z,63.8
2019-02-20T18:30:28.050Z,64.1
2019-02-20T18:40:42.304Z,65.4
2019-02-20T18:50:55.742Z,65.3
2019-02-20T19:01:08.693Z,65.7
2019-02-20T19:12:13.524Z,65.4
2019-02-20T19:38:05.859Z,66.0
2019-02-20T20:35:52.164Z,65.6
2019-02-20T20:46:54.476Z,65.5
2019-02-20T21:00:07.952Z,65.6
2019-02-20T21:10:21.859Z,65.5
2019-02-20T21:21:07.327Z,65.2
2019-02-20T21:31:53.595Z,65.4
2019-02-20T21:42:36.945Z,65.2
2019-02-20T21:53:23.026Z,65.3
2019-02-20T22:03:37.539Z,65.5
2019-02-20T22:13:51.419Z,65.9
2019-02-20T22:27:49.458Z,66.1
2019-02-20T22:38:14.914Z,66.1
2019-02-20T22:48:44.397Z,66.3
2019-02-20T22:58:58.822Z,66.5
2019-02-20T23:09:10.246Z,66.6
2019-02-20T23:19:23.470Z,66.4
2019-02-20T23:30:12.491Z,66.4
2019-02-20T23:40:32.887Z,66.7
2019-02-20T23:50:47.039Z,66.6
